createdAt,value
2023-04-30T00:03:20.141Z,101957.84
2023-04-30T00:08:23.073Z,101965.44
2023-04-30T00:13:25.868Z,101976.75
2023-04-30T00:18:30.008Z,101986.50
2023-04-30T00:23:32.717Z,101999.44
2023-04-30T00:28:35.429Z,102016.84
2023-04-30T00:33:39.502Z,102040.31
2023-04-30T00:38:42.281Z,102070.88
2023-04-30T00:43:46.817Z,102084.81
2023-04-30T00:48:51.128Z,102106.84
2023-04-30T00:53:53.918Z,102135.44
2023-04-30T00:58:57.832Z,102146.63
2023-04-30T01:04:02.106Z,102172.56
2023-04-30T01:09:05.006Z,102183.34
2023-04-30T01:14:11.873Z,102207.84
2023-04-30T01:19:25.761Z,102226.19
2023-04-30T01:24:50.056Z,102226.84
2023-04-30T01:29:56.200Z,102240.06
2023-04-30T01:35:02.397Z,102252.13
2023-04-30T01:40:19.409Z,102269.94
2023-04-30T01:45:34.337Z,102276.47
2023-04-30T01:50:44.788Z,102297.44
2023-04-30T01:55:51.935Z,102300.16
2023-04-30T02:00:56.078Z,102326.38
2023-04-30T02:05:59.079Z,102333.25
2023-04-30T02:11:01.867Z,102383.06
2023-04-30T02:16:06.824Z,102396.66
2023-04-30T02:21:10.088Z,102422.91
2023-04-30T02:26:12.860Z,102416.34
2023-04-30T02:31:17.016Z,102446.22
2023-04-30T02:36:21.717Z,102430.84
2023-04-30T02:41:24.418Z,102456.94
2023-04-30T02:46:28.515Z,102506.94
2023-04-30T02:51:32.597Z,102523.25
2023-04-30T02:56:35.610Z,102583.00
2023-04-30T03:01:40.131Z,102666.66
2023-04-30T03:06:43.080Z,102702.44
2023-04-30T03:11:47.042Z,102716.16
2023-04-30T03:16:51.108Z,102720.50
2023-04-30T03:21:53.840Z,102812.31
2023-04-30T03:26:56.727Z,102851.13
2023-04-30T03:32:00.936Z,102900.53
2023-04-30T03:37:03.857Z,102957.03
2023-04-30T03:42:06.590Z,103008.34
2023-04-30T03:47:10.817Z,103023.75
2023-04-30T03:52:13.639Z,103053.47
2023-04-30T03:57:16.428Z,103097.88
2023-04-30T04:02:21.452Z,103165.22
2023-04-30T04:07:24.263Z,103106.97
2023-04-30T04:12:26.948Z,103116.66
2023-04-30T04:17:31.113Z,103140.22
2023-04-30T04:22:33.864Z,103115.72
2023-04-30T04:27:36.929Z,103145.31
2023-04-30T04:32:46.545Z,103183.41
2023-04-30T04:37:49.417Z,103150.84
2023-04-30T04:42:52.380Z,103184.22
2023-04-30T04:47:56.533Z,103182.66
2023-04-30T04:52:59.400Z,103183.47
2023-04-30T04:58:02.109Z,103154.94
2023-04-30T05:03:06.303Z,103135.94
2023-04-30T05:08:09.057Z,103102.94
2023-04-30T05:13:12.000Z,103109.06
2023-04-30T05:18:16.244Z,103074.94
2023-04-30T05:23:18.973Z,103049.25
2023-04-30T05:28:21.726Z,103011.88
2023-04-30T05:33:26.094Z,102996.41
2023-04-30T05:38:28.937Z,102988.91
2023-04-30T05:43:31.700Z,102932.88
2023-04-30T05:48:35.743Z,102914.25
2023-04-30T05:53:38.498Z,102918.75
2023-04-30T05:58:41.264Z,102875.25
2023-04-30T06:03:45.327Z,102891.72
2023-04-30T06:08:48.044Z,102878.03
2023-04-30T06:13:50.948Z,102854.69
2023-04-30T06:18:55.050Z,102815.13
2023-04-30T06:23:57.791Z,102793.00
2023-04-30T06:29:00.552Z,102765.13
2023-04-30T06:34:04.617Z,102751.94
2023-04-30T06:39:07.349Z,102755.38
2023-04-30T06:44:10.463Z,102734.84
2023-04-30T06:49:14.611Z,102697.09
2023-04-30T06:54:17.329Z,102660.38
2023-04-30T06:59:20.110Z,102723.63
2023-04-30T07:04:25.349Z,102634.16
2023-04-30T07:09:28.879Z,102609.03
2023-04-30T07:14:31.610Z,102519.38
2023-04-30T07:19:35.609Z,102413.56
2023-04-30T07:24:38.309Z,102357.84
2023-04-30T07:29:41.114Z,102284.78
2023-04-30T07:34:45.184Z,102208.19
2023-04-30T07:39:47.873Z,102177.38
2023-04-30T07:44:50.802Z,102131.41
2023-04-30T07:49:55.128Z,102038.78
2023-04-30T07:54:58.054Z,102054.63
2023-04-30T08:00:00.991Z,102020.22
2023-04-30T08:05:05.869Z,102008.94
2023-04-30T08:10:09.484Z,101982.03
2023-04-30T08:15:12.343Z,101957.28
2023-04-30T08:20:16.949Z,101946.69
2023-04-30T08:25:19.719Z,101916.56
2023-04-30T08:30:22.442Z,101892.09
2023-04-30T08:35:26.632Z,101847.94
2023-04-30T08:40:49.542Z,101808.78
2023-04-30T08:45:53.070Z,101803.78
2023-04-30T08:50:57.202Z,101773.97
2023-04-30T08:55:59.938Z,101748.41
2023-04-30T09:01:03.622Z,101727.28
2023-04-30T09:06:07.915Z,101712.38
2023-04-30T09:11:26.976Z,101685.31
2023-04-30T09:16:31.222Z,101690.31
2023-04-30T09:21:36.551Z,101663.00
2023-04-30T09:26:40.044Z,101659.72
2023-04-30T09:31:44.896Z,101659.22
2023-04-30T09:36:55.813Z,101665.91
2023-04-30T09:42:08.581Z,101631.78
2023-04-30T09:47:16.150Z,101615.41
2023-04-30T09:52:20.856Z,101591.34
2023-04-30T09:57:25.712Z,101580.88
2023-04-30T10:02:28.661Z,101573.34
2023-04-30T10:07:36.178Z,101560.97
2023-04-30T10:12:42.218Z,101531.53
2023-04-30T10:17:50.231Z,101499.72
2023-04-30T10:22:54.978Z,101454.72
2023-04-30T10:27:57.784Z,101485.84
2023-04-30T10:33:10.759Z,101468.97
2023-04-30T10:38:20.020Z,101448.72
2023-04-30T10:43:25.089Z,101449.31
2023-04-30T10:48:28.308Z,101435.38
2023-04-30T10:53:33.939Z,101423.38
2023-04-30T10:58:38.378Z,101430.91
2023-04-30T11:03:43.172Z,101383.53
2023-04-30T11:08:47.585Z,101407.97
2023-04-30T11:14:02.099Z,101437.53
2023-04-30T11:19:10.770Z,101388.91
2023-04-30T11:24:15.712Z,101436.84
2023-04-30T11:29:18.850Z,101444.66
2023-04-30T11:34:21.607Z,101400.81
2023-04-30T11:39:25.916Z,101440.91
2023-04-30T11:44:29.086Z,101415.69
2023-04-30T11:49:32.287Z,101414.72
2023-04-30T11:54:37.302Z,101390.63
2023-04-30T11:59:43.837Z,101354.75
2023-04-30T12:04:48.441Z,101358.34
2023-04-30T12:09:56.167Z,101355.13
2023-04-30T12:14:59.383Z,101342.34
2023-04-30T12:20:02.310Z,101333.44
2023-04-30T12:25:10.484Z,101323.63
2023-04-30T12:30:14.019Z,101309.28
2023-04-30T12:35:18.863Z,101246.31
2023-04-30T12:40:27.978Z,101246.06
2023-04-30T12:45:47.554Z,101226.16
2023-04-30T12:50:54.681Z,101193.84
2023-04-30T12:56:13.725Z,101160.94
2023-04-30T13:01:18.631Z,101146.00
2023-04-30T13:06:22.646Z,101115.22
2023-04-30T13:11:27.673Z,101105.25
2023-04-30T13:16:31.091Z,101090.66
2023-04-30T13:21:34.003Z,101087.56
2023-04-30T13:26:38.568Z,101069.91
2023-04-30T13:31:42.405Z,101071.56
2023-04-30T13:36:46.666Z,101071.78
2023-04-30T13:41:50.800Z,101083.38
2023-04-30T13:46:53.566Z,101098.31
2023-04-30T13:51:56.346Z,101126.00
2023-04-30T13:57:00.643Z,101149.41
2023-04-30T14:02:03.425Z,101135.47
2023-04-30T14:07:06.117Z,101130.09
2023-04-30T14:12:10.145Z,101122.91
2023-04-30T14:17:12.839Z,101105.28
2023-04-30T14:22:15.672Z,101091.88
2023-04-30T14:27:19.760Z,101093.47
2023-04-30T14:32:22.698Z,101085.69
2023-04-30T14:37:25.613Z,101071.47
2023-04-30T14:42:29.707Z,101046.00
2023-04-30T14:47:32.490Z,101046.53
2023-04-30T14:52:35.197Z,101043.38
2023-04-30T14:57:39.294Z,101029.78
2023-04-30T15:02:42.181Z,101034.78
2023-04-30T15:07:44.944Z,101024.88
2023-04-30T15:12:49.080Z,101026.13
2023-04-30T15:17:51.846Z,101022.53
2023-04-30T15:22:55.139Z,101020.97
2023-04-30T15:27:59.526Z,101014.66
2023-04-30T15:33:02.836Z,101021.44
2023-04-30T15:38:05.614Z,101013.91
2023-04-30T15:43:09.725Z,101006.44
2023-04-30T15:48:12.428Z,101011.66
2023-04-30T15:53:15.170Z,101007.63
2023-04-30T15:58:19.329Z,101000.50
2023-04-30T16:03:22.103Z,100996.78
2023-04-30T16:08:24.983Z,100992.31
2023-04-30T16:13:29.088Z,100985.50
2023-04-30T16:18:31.817Z,100980.59
2023-04-30T16:23:34.513Z,100969.19
2023-04-30T16:28:38.619Z,100978.13
2023-04-30T16:33:41.629Z,100970.09
2023-04-30T16:38:46.300Z,100967.78
2023-04-30T16:43:50.765Z,100959.66
2023-04-30T16:48:53.840Z,100964.47
2023-04-30T16:53:56.572Z,100959.22
2023-04-30T16:59:00.667Z,100953.59
2023-04-30T17:04:04.314Z,100945.81
2023-04-30T17:09:07.031Z,100948.75
2023-04-30T17:14:11.060Z,100937.03
2023-04-30T17:19:13.785Z,100933.25
2023-04-30T17:24:16.494Z,100919.84
2023-04-30T17:29:20.971Z,100910.31
2023-04-30T17:34:23.690Z,100919.56
2023-04-30T17:39:26.665Z,100916.22
2023-04-30T17:44:31.570Z,100922.56
2023-04-30T17:49:34.287Z,100926.59
2023-04-30T17:54:37.301Z,100919.97
2023-04-30T17:59:41.330Z,100917.31
2023-04-30T18:04:45.106Z,100915.03
2023-04-30T18:09:47.882Z,100910.75
2023-04-30T18:14:52.049Z,100905.78
2023-04-30T18:19:55.167Z,100906.44
2023-04-30T18:24:58.138Z,100907.63
2023-04-30T18:30:03.075Z,100908.00
2023-04-30T18:35:06.499Z,100908.50
2023-04-30T18:40:10.389Z,100913.31
2023-04-30T18:45:15.417Z,100907.06
2023-04-30T18:50:19.503Z,100906.13
2023-04-30T18:55:22.227Z,100900.38
2023-04-30T19:00:27.349Z,100903.66
2023-04-30T19:05:30.027Z,100904.00
2023-04-30T19:10:34.773Z,100913.00
2023-04-30T19:15:38.932Z,100922.59
2023-04-30T19:20:42.795Z,100927.00
2023-04-30T19:25:48.478Z,100926.38
2023-04-30T19:30:54.194Z,100927.88
2023-04-30T19:35:57.536Z,100921.19
2023-04-30T19:41:01.112Z,100928.81
2023-04-30T19:46:05.236Z,100922.66
2023-04-30T19:51:09.145Z,100923.22
2023-04-30T19:56:12.353Z,100916.38
2023-04-30T20:01:16.529Z,100921.22
2023-04-30T20:06:20.460Z,100915.69
2023-04-30T20:11:23.338Z,100921.50
2023-04-30T20:16:27.436Z,100913.00
2023-04-30T20:21:30.348Z,100899.78
2023-04-30T20:26:33.248Z,100901.91
2023-04-30T20:31:37.724Z,100895.78
2023-04-30T20:36:40.527Z,100895.59
2023-04-30T20:41:43.753Z,100888.91
2023-04-30T20:46:47.999Z,100889.97
2023-04-30T20:51:50.752Z,100891.91
2023-04-30T20:56:53.473Z,100891.69
2023-04-30T21:01:57.789Z,100887.16
2023-04-30T21:07:00.724Z,100878.47
2023-04-30T21:12:05.039Z,100877.13
2023-04-30T21:17:09.307Z,100880.75
2023-04-30T21:22:12.061Z,100873.88
2023-04-30T21:27:14.746Z,100871.72
2023-04-30T21:32:18.818Z,100876.88
2023-04-30T21:37:21.727Z,100868.84
2023-04-30T21:42:24.521Z,100859.03
2023-04-30T21:47:28.857Z,100871.84
2023-04-30T21:52:31.678Z,100860.41
2023-04-30T21:57:34.563Z,100865.16
2023-04-30T22:02:38.789Z,100851.66
2023-04-30T22:07:41.693Z,100854.59
2023-04-30T22:12:47.465Z,100851.06
2023-04-30T22:17:52.077Z,100845.50
2023-04-30T22:22:55.779Z,100839.28
2023-04-30T22:27:58.501Z,100830.47
2023-04-30T22:33:02.776Z,100829.13
2023-04-30T22:38:05.780Z,100822.66
2023-04-30T22:43:09.873Z,100822.22
2023-04-30T22:48:14.076Z,100817.84
2023-04-30T22:53:17.060Z,100809.75
2023-04-30T22:58:20.062Z,100806.25
2023-04-30T23:03:24.285Z,100807.81
2023-04-30T23:08:26.976Z,100799.47
2023-04-30T23:13:29.674Z,100798.16
2023-04-30T23:18:33.792Z,100791.19
2023-04-30T23:23:36.518Z,100796.72
2023-04-30T23:28:39.246Z,100796.50
2023-04-30T23:33:43.350Z,100795.81
2023-04-30T23:38:47.489Z,100786.94
2023-04-30T23:43:50.996Z,100781.97
2023-04-30T23:48:55.665Z,100782.66
2023-04-30T23:53:58.548Z,100774.22
2023-04-30T23:59:01.622Z,100772.84
